Time;durP1;ratioP1;P1;durP2;ratioP2;P2;SDS_P1;SDS_P2;PMS_P1;PMS_P2;Temp;Humidity;BMP_temperature;BMP_pressure;BME280_temperature;BME280_humidity;BME280_pressure;Samples;Min_cycle;Max_cycle;Signal;HPM_P1;HPM_P2
2023/06/18 00:00:40;;;;;;;6.60;4.78;;;25.70;77.10;;;;;;11003961;32;20049;-74
2023/06/18 00:06:43;;;;;;;5.28;3.95;;;25.70;77.30;;;;;;11017954;32;20045;-74
2023/06/18 00:12:44;;;;;;;6.20;4.62;;;25.70;77.40;;;;;;11018111;32;20044;-74
2023/06/18 00:19:01;;;;;;;6.80;4.45;;;25.60;77.80;;;;;;11018318;32;20014;-74
2023/06/18 00:25:06;;;;;;;7.72;5.32;;;25.50;78.00;;;;;;11023707;32;20075;-73
2023/06/18 00:31:11;;;;;;;7.57;4.97;;;25.60;78.00;;;;;;11025720;32;20018;-73
2023/06/18 00:37:13;;;;;;;6.95;4.80;;;25.50;78.10;;;;;;11021441;32;20067;-73
2023/06/18 00:43:16;;;;;;;7.37;5.15;;;25.40;78.00;;;;;;11024068;32;20049;-74
2023/06/18 00:49:18;;;;;;;10.10;5.62;;;25.30;78.00;;;;;;11021364;32;20018;-74
2023/06/18 00:55:23;;;;;;;7.80;4.72;;;25.30;78.50;;;;;;11009410;32;20053;-73
2023/06/18 01:01:28;;;;;;;7.28;5.05;;;25.30;78.60;;;;;;11004653;32;20051;-73
2023/06/18 01:07:33;;;;;;;7.30;4.93;;;25.30;78.40;;;;;;11023329;32;20332;-74
2023/06/18 01:13:40;;;;;;;6.25;4.65;;;25.30;78.50;;;;;;11010747;32;20389;-74
2023/06/18 01:19:49;;;;;;;8.20;5.25;;;25.30;78.90;;;;;;11021906;32;20027;-73
2023/06/18 01:25:53;;;;;;;7.37;5.55;;;25.30;78.90;;;;;;11023539;32;20041;-73
2023/06/18 01:31:56;;;;;;;7.35;4.30;;;25.30;78.60;;;;;;11021988;32;20321;-74
2023/06/18 01:38:01;;;;;;;6.70;4.50;;;25.20;79.10;;;;;;11007933;32;20350;-73
2023/06/18 01:44:07;;;;;;;8.63;5.12;;;25.10;79.60;;;;;;11022506;32;20046;-73
2023/06/18 01:50:13;;;;;;;6.30;4.40;;;25.10;79.20;;;;;;11003966;32;20041;-73
2023/06/18 01:56:17;;;;;;;7.28;4.82;;;25.10;79.80;;;;;;11021912;32;20060;-73
2023/06/18 02:02:19;;;;;;;11.12;7.68;;;24.90;80.50;;;;;;11018646;32;20056;-73
2023/06/18 02:08:21;;;;;;;6.87;5.22;;;24.80;80.70;;;;;;11007025;32;20022;-73
2023/06/18 02:14:23;;;;;;;5.82;4.55;;;24.80;80.10;;;;;;11022106;32;20046;-73
2023/06/18 02:20:26;;;;;;;8.55;6.07;;;24.90;80.10;;;;;;11020152;32;20343;-74
2023/06/18 02:26:29;;;;;;;11.75;7.62;;;24.80;80.00;;;;;;11017842;32;20026;-74
2023/06/18 02:32:31;;;;;;;9.30;7.12;;;24.80;80.40;;;;;;11003609;32;20018;-74
2023/06/18 02:38:34;;;;;;;9.43;6.87;;;24.60;80.70;;;;;;11018964;32;20076;-73
2023/06/18 02:44:36;;;;;;;11.38;8.43;;;24.50;81.30;;;;;;11017966;32;20057;-73
2023/06/18 02:50:38;;;;;;;9.00;6.70;;;24.40;81.10;;;;;;11005119;32;20040;-74
2023/06/18 02:56:42;;;;;;;10.10;7.90;;;24.40;81.20;;;;;;11016700;32;20034;-73
2023/06/18 03:02:46;;;;;;;9.68;7.85;;;24.40;81.40;;;;;;11016078;32;20018;-73
2023/06/18 03:08:48;;;;;;;12.18;9.32;;;24.40;81.00;;;;;;11020021;32;20014;-74
2023/06/18 03:14:50;;;;;;;10.18;6.10;;;24.30;81.00;;;;;;11018523;32;20037;-74
2023/06/18 03:20:54;;;;;;;10.38;7.43;;;24.30;81.10;;;;;;11003763;32;20069;-74
2023/06/18 03:26:59;;;;;;;10.60;8.52;;;24.30;81.10;;;;;;11017955;32;20014;-74
2023/06/18 03:33:02;;;;;;;11.20;8.50;;;24.30;81.30;;;;;;11019189;32;20026;-73
2023/06/18 03:39:09;;;;;;;9.07;6.50;;;24.30;81.40;;;;;;11014207;32;20022;-74
2023/06/18 03:45:12;;;;;;;10.95;7.30;;;24.30;80.90;;;;;;11017510;32;20337;-73
2023/06/18 03:51:15;;;;;;;8.23;6.40;;;24.30;81.40;;;;;;11013553;32;20037;-73
2023/06/18 03:57:17;;;;;;;11.23;8.18;;;24.20;81.60;;;;;;11022174;32;20009;-73
2023/06/18 04:03:20;;;;;;;9.02;6.30;;;24.30;81.50;;;;;;11016458;32;20048;-74
2023/06/18 04:09:22;;;;;;;7.62;5.90;;;24.20;81.70;;;;;;11031310;32;20405;-73
2023/06/18 04:15:24;;;;;;;10.35;5.65;;;24.20;81.60;;;;;;11030393;32;20042;-73
2023/06/18 04:21:26;;;;;;;12.37;6.55;;;24.30;81.70;;;;;;11028463;32;20057;-73
2023/06/18 04:27:29;;;;;;;10.43;7.35;;;24.30;81.50;;;;;;11028662;32;20040;-73
2023/06/18 04:33:32;;;;;;;9.30;6.87;;;24.30;81.40;;;;;;11030236;32;20336;-73
2023/06/18 04:39:35;;;;;;;12.32;9.07;;;24.30;81.20;;;;;;11029798;32;20041;-73
2023/06/18 04:45:37;;;;;;;8.77;6.50;;;24.30;81.00;;;;;;11012838;32;20052;-73
2023/06/18 04:51:54;;;;;;;8.55;5.28;;;24.20;81.10;;;;;;11025928;32;20014;-74
2023/06/18 04:58:13;;;;;;;9.93;6.82;;;24.30;81.00;;;;;;11024996;32;20301;-74
2023/06/18 05:04:15;;;;;;;8.40;5.93;;;24.30;81.20;;;;;;11029153;32;20006;-74
2023/06/18 05:10:17;;;;;;;11.75;9.18;;;24.20;81.60;;;;;;11022183;32;20023;-72
2023/06/18 05:16:20;;;;;;;7.05;4.82;;;24.10;81.30;;;;;;11008342;32;20014;-73
2023/06/18 05:22:23;;;;;;;8.15;6.82;;;24.20;81.50;;;;;;11023857;32;20018;-74
2023/06/18 05:28:25;;;;;;;9.43;5.75;;;24.30;81.00;;;;;;11022396;32;20014;-73
2023/06/18 05:34:27;;;;;;;7.97;5.68;;;24.30;81.00;;;;;;11022821;32;20015;-73
2023/06/18 05:40:29;;;;;;;7.53;5.75;;;24.30;81.10;;;;;;11020076;32;20332;-73
2023/06/18 05:46:32;;;;;;;7.40;4.30;;;24.40;80.80;;;;;;11020541;32;20324;-73
2023/06/18 05:52:34;;;;;;;5.37;4.28;;;24.50;80.90;;;;;;11021186;32;20050;-73
2023/06/18 05:58:37;;;;;;;7.32;5.05;;;24.80;80.80;;;;;;11008344;32;20066;-73
2023/06/18 06:04:39;;;;;;;8.93;5.43;;;24.90;80.70;;;;;;11020856;32;20048;-73
2023/06/18 06:10:41;;;;;;;3.90;2.62;;;24.90;80.40;;;;;;11005685;32;20323;-73
2023/06/18 06:16:43;;;;;;;5.95;3.05;;;25.00;80.30;;;;;;11020742;32;20010;-74
2023/06/18 06:22:46;;;;;;;5.07;3.40;;;25.10;80.60;;;;;;11021031;32;20018;-73
2023/06/18 06:28:48;;;;;;;7.30;4.47;;;25.20;79.80;;;;;;11020192;32;20037;-73
2023/06/18 06:35:05;;;;;;;7.70;5.43;;;25.30;79.90;;;;;;11020321;32;20434;-73
2023/06/18 06:41:08;;;;;;;6.85;4.60;;;25.30;79.50;;;;;;11017555;32;20044;-75
2023/06/18 06:47:10;;;;;;;6.60;4.28;;;25.30;79.00;;;;;;11017518;32;20048;-73
2023/06/18 06:53:12;;;;;;;8.80;7.00;;;25.30;79.20;;;;;;11020087;32;20336;-73
2023/06/18 06:59:14;;;;;;;6.22;4.10;;;25.30;79.30;;;;;;11004289;32;20069;-73
2023/06/18 07:05:16;;;;;;;7.10;5.43;;;25.30;79.10;;;;;;11018948;32;20351;-73
2023/06/18 07:11:18;;;;;;;6.37;4.57;;;25.50;78.90;;;;;;11002391;32;20030;-75
2023/06/18 07:17:20;;;;;;;7.45;4.72;;;25.60;78.80;;;;;;11019100;32;20007;-73
2023/06/18 07:23:22;;;;;;;8.70;5.22;;;25.70;78.90;;;;;;11017845;32;20388;-73
2023/06/18 07:29:25;;;;;;;7.75;4.82;;;25.80;78.70;;;;;;10993309;26;20150;-73
2023/06/18 07:35:28;;;;;;;5.53;3.78;;;25.90;78.20;;;;;;10979301;32;20026;-74
2023/06/18 07:41:30;;;;;;;7.05;4.30;;;26.10;78.40;;;;;;10979453;32;20030;-73
2023/06/18 07:47:32;;;;;;;6.57;4.22;;;26.20;77.90;;;;;;10979221;32;20397;-73
2023/06/18 07:53:34;;;;;;;6.75;4.57;;;26.30;77.40;;;;;;10979221;32;20034;-72
2023/06/18 07:59:36;;;;;;;5.32;3.90;;;26.40;77.20;;;;;;10979373;32;20034;-75
2023/06/18 08:05:39;;;;;;;7.70;4.72;;;26.30;76.90;;;;;;10963369;32;20035;-73
2023/06/18 08:11:42;;;;;;;5.85;3.83;;;26.50;76.60;;;;;;10978988;32;20045;-74
2023/06/18 08:17:45;;;;;;;5.40;3.78;;;26.60;76.10;;;;;;10980418;32;20045;-73
2023/06/18 08:23:47;;;;;;;3.87;2.55;;;26.70;75.80;;;;;;10978933;32;20014;-73
2023/06/18 08:29:49;;;;;;;3.58;2.60;;;26.80;75.40;;;;;;10978106;32;20035;-72
2023/06/18 08:35:51;;;;;;;4.07;2.70;;;26.90;76.10;;;;;;10975428;32;20023;-74
2023/06/18 08:42:06;;;;;;;3.33;2.40;;;27.00;76.30;;;;;;10979395;32;20044;-73
2023/06/18 08:48:09;;;;;;;6.43;3.22;;;27.30;76.10;;;;;;10985844;32;20041;-73
2023/06/18 08:54:17;;;;;;;4.68;3.12;;;27.30;75.30;;;;;;10981453;32;20541;-72
2023/06/18 09:00:20;;;;;;;7.10;3.62;;;27.40;74.00;;;;;;10985145;32;20030;-73
2023/06/18 09:06:23;;;;;;;6.20;3.78;;;27.40;74.40;;;;;;10985148;32;20053;-73
2023/06/18 09:12:26;;;;;;;4.72;3.20;;;27.60;74.10;;;;;;10984880;32;20050;-73
2023/06/18 09:18:29;;;;;;;8.93;4.22;;;27.60;74.70;;;;;;10983740;32;20064;-73
2023/06/18 09:24:33;;;;;;;6.60;3.72;;;27.80;73.20;;;;;;10984095;32;20427;-73
2023/06/18 09:30:36;;;;;;;7.40;3.90;;;27.90;71.80;;;;;;10984003;32;20034;-73
2023/06/18 09:36:39;;;;;;;9.13;5.00;;;28.00;71.40;;;;;;10984025;32;20409;-73
2023/06/18 09:42:43;;;;;;;6.37;3.05;;;28.10;70.50;;;;;;10969216;32;20061;-73
2023/06/18 09:48:46;;;;;;;5.07;3.15;;;28.30;70.80;;;;;;10983380;32;20439;-73
2023/06/18 09:54:49;;;;;;;8.10;3.85;;;28.30;70.30;;;;;;10978741;32;20049;-73
2023/06/18 10:01:03;;;;;;;5.30;3.47;;;28.40;69.70;;;;;;10982638;32;20031;-74
2023/06/18 10:07:15;;;;;;;5.57;2.97;;;28.70;68.90;;;;;;10982566;32;20108;-73
2023/06/18 10:13:18;;;;;;;7.05;3.20;;;28.70;68.70;;;;;;10982404;32;20041;-73
2023/06/18 10:19:44;;;;;;;6.87;4.15;;;28.90;68.80;;;;;;10982094;32;20026;-73
2023/06/18 10:25:47;;;;;;;7.15;3.55;;;29.00;68.60;;;;;;10968640;32;20053;-73
2023/06/18 10:31:50;;;;;;;6.93;3.67;;;29.20;68.20;;;;;;10978142;32;20039;-72
2023/06/18 10:37:53;;;;;;;16.17;6.72;;;29.30;67.40;;;;;;10978668;32;20022;-72
2023/06/18 10:43:57;;;;;;;5.50;3.65;;;29.50;67.10;;;;;;10980763;32;20444;-73
2023/06/18 10:50:03;;;;;;;5.32;3.72;;;29.50;67.00;;;;;;10967491;32;20026;-73
2023/06/18 10:56:29;;;;;;;7.68;5.18;;;29.70;66.90;;;;;;10981236;32;20073;-74
2023/06/18 11:02:37;;;;;;;9.10;6.20;;;29.90;64.60;;;;;;10980354;32;20026;-74
2023/06/18 11:08:40;;;;;;;6.90;3.92;;;30.00;65.30;;;;;;10980562;32;20353;-72
2023/06/18 11:14:41;;;;;;;5.60;3.50;;;30.30;64.30;;;;;;10966809;32;20019;-73
2023/06/18 11:20:46;;;;;;;5.00;3.35;;;30.40;64.60;;;;;;10965950;32;20038;-73
2023/06/18 11:26:50;;;;;;;5.90;3.97;;;30.40;65.60;;;;;;10980126;32;20015;-73
2023/06/18 11:32:52;;;;;;;6.68;3.55;;;30.70;64.70;;;;;;10979955;32;20336;-73
2023/06/18 11:38:58;;;;;;;6.60;4.30;;;30.80;65.10;;;;;;10953536;32;20039;-72
2023/06/18 11:45:02;;;;;;;5.43;3.75;;;30.90;64.20;;;;;;10978374;32;20035;-73
2023/06/18 11:51:05;;;;;;;6.53;4.62;;;31.10;63.10;;;;;;10966130;32;20011;-73
2023/06/18 11:57:12;;;;;;;5.50;3.50;;;31.30;63.10;;;;;;10979167;32;20018;-72
2023/06/18 12:03:14;;;;;;;5.12;3.10;;;31.50;62.10;;;;;;10979183;32;20091;-73
2023/06/18 12:09:16;;;;;;;5.10;3.55;;;31.60;61.80;;;;;;10965880;32;20058;-73
2023/06/18 12:15:25;;;;;;;5.30;3.55;;;31.60;62.60;;;;;;10979152;32;20018;-73
2023/06/18 12:21:28;;;;;;;6.55;4.10;;;31.60;61.30;;;;;;10982586;32;20293;-72
2023/06/18 12:27:31;;;;;;;8.93;5.12;;;31.50;61.90;;;;;;10986382;32;20023;-73
2023/06/18 12:33:44;;;;;;;5.72;3.90;;;31.50;61.90;;;;;;10972492;32;20065;-73
2023/06/18 12:40:15;;;;;;;9.68;3.87;;;31.50;61.50;;;;;;10971220;32;20057;-73
2023/06/18 12:46:27;;;;;;;4.62;3.25;;;31.60;60.70;;;;;;10985743;32;20053;-73
2023/06/18 12:52:29;;;;;;;7.72;4.00;;;31.70;59.70;;;;;;10985719;32;20056;-73
2023/06/18 12:58:34;;;;;;;5.15;3.47;;;31.80;58.90;;;;;;10982748;32;20053;-74
2023/06/18 13:04:50;;;;;;;11.18;4.53;;;31.80;60.60;;;;;;10971679;32;20368;-73
2023/06/18 13:10:53;;;;;;;4.75;3.45;;;31.80;62.00;;;;;;10984946;32;20023;-73
2023/06/18 13:17:01;;;;;;;5.05;3.95;;;31.60;61.40;;;;;;10984814;32;20051;-73
2023/06/18 13:23:04;;;;;;;4.12;3.08;;;31.70;59.90;;;;;;10984448;32;20034;-73
2023/06/18 13:29:09;;;;;;;5.85;3.70;;;31.80;59.20;;;;;;10957778;32;20057;-74
2023/06/18 13:35:34;;;;;;;6.80;3.58;;;31.70;58.50;;;;;;10984195;32;20022;-74
2023/06/18 13:41:37;;;;;;;7.30;3.97;;;31.70;59.20;;;;;;10965494;32;20344;-74
2023/06/18 13:47:39;;;;;;;5.95;3.78;;;31.70;60.40;;;;;;10969928;32;20039;-74
2023/06/18 13:53:41;;;;;;;4.78;3.28;;;31.60;61.70;;;;;;10983520;32;20041;-73
2023/06/18 13:59:44;;;;;;;5.05;3.12;;;31.50;60.20;;;;;;10983214;32;20049;-73
2023/06/18 14:05:47;;;;;;;4.93;3.12;;;31.60;60.10;;;;;;10983044;32;20011;-73
2023/06/18 14:11:49;;;;;;;6.25;3.85;;;31.50;60.40;;;;;;10982877;32;20053;-73
2023/06/18 14:17:51;;;;;;;5.82;3.85;;;31.50;59.40;;;;;;10969190;32;20015;-73
2023/06/18 14:23:53;;;;;;;6.62;4.12;;;31.40;59.40;;;;;;10982146;32;20022;-73
2023/06/18 14:29:56;;;;;;;7.95;4.07;;;31.40;60.00;;;;;;10979466;32;20485;-73
2023/06/18 14:35:58;;;;;;;3.90;2.50;;;31.30;59.40;;;;;;10957398;32;20188;-73
2023/06/18 14:42:00;;;;;;;7.05;4.20;;;31.30;60.50;;;;;;10943848;32;20023;-73
2023/06/18 14:48:04;;;;;;;10.93;4.40;;;31.10;59.80;;;;;;10943924;32;20010;-73
2023/06/18 14:54:15;;;;;;;5.53;3.50;;;31.00;59.30;;;;;;10943604;32;20047;-73
2023/06/18 15:00:18;;;;;;;6.68;3.28;;;31.00;58.70;;;;;;10943322;32;20462;-73
2023/06/18 15:06:20;;;;;;;5.70;3.40;;;30.80;60.00;;;;;;10928722;32;20030;-73
2023/06/18 15:12:22;;;;;;;4.78;2.83;;;30.70;61.00;;;;;;10929856;32;20393;-73
2023/06/18 15:18:24;;;;;;;5.15;2.83;;;30.70;61.10;;;;;;10943261;32;20045;-73
2023/06/18 15:24:26;;;;;;;5.57;3.03;;;30.50;62.70;;;;;;10928935;32;20081;-73
2023/06/18 15:30:28;;;;;;;8.20;3.97;;;30.50;61.50;;;;;;10752776;27;7378171;-73
2023/06/18 15:36:31;;;;;;;6.05;3.75;;;30.60;60.70;;;;;;10965983;32;20392;-74
2023/06/18 15:42:33;;;;;;;5.00;3.17;;;30.60;60.60;;;;;;10980274;32;20026;-73
2023/06/18 15:48:36;;;;;;;5.62;3.92;;;30.60;63.00;;;;;;10980066;32;20396;-73
2023/06/18 15:54:38;;;;;;;8.75;3.65;;;30.60;62.00;;;;;;10978651;32;20045;-74
2023/06/18 16:00:39;;;;;;;6.60;3.42;;;30.60;61.60;;;;;;10978992;32;20045;-73
2023/06/18 16:06:42;;;;;;;3.55;2.70;;;30.60;60.80;;;;;;10979812;32;20053;-73
2023/06/18 16:12:44;;;;;;;3.70;2.10;;;30.70;61.00;;;;;;10980046;32;20015;-73
2023/06/18 16:18:46;;;;;;;3.90;2.72;;;30.70;61.90;;;;;;10978534;32;20069;-73
2023/06/18 16:24:48;;;;;;;5.87;2.90;;;30.70;62.80;;;;;;10978320;32;20030;-73
2023/06/18 16:30:50;;;;;;;5.07;2.95;;;30.70;59.70;;;;;;10978547;32;20023;-73
2023/06/18 16:36:52;;;;;;;5.07;3.00;;;30.70;59.30;;;;;;10964385;32;20035;-73
2023/06/18 16:42:54;;;;;;;5.82;2.70;;;30.70;60.80;;;;;;10977308;32;20053;-73
2023/06/18 16:48:56;;;;;;;6.75;3.22;;;30.70;59.60;;;;;;10964727;32;20099;-72
2023/06/18 16:54:58;;;;;;;4.50;2.25;;;30.70;60.40;;;;;;10979399;32;20026;-73
2023/06/18 17:01:01;;;;;;;3.22;2.33;;;30.60;61.30;;;;;;10965079;32;20045;-74
2023/06/18 17:07:05;;;;;;;3.12;2.28;;;30.60;61.00;;;;;;10985162;32;20423;-73
2023/06/18 17:13:07;;;;;;;5.12;2.62;;;30.50;60.30;;;;;;10986278;32;20054;-74
2023/06/18 17:19:09;;;;;;;5.37;2.80;;;30.40;61.10;;;;;;10985036;32;20019;-74
2023/06/18 17:25:11;;;;;;;4.55;2.87;;;30.30;60.90;;;;;;10985718;32;20022;-74
2023/06/18 17:31:13;;;;;;;5.00;3.30;;;30.30;61.90;;;;;;10953842;32;20027;-73
2023/06/18 17:37:15;;;;;;;6.05;2.80;;;30.20;63.20;;;;;;10985555;32;20402;-73
2023/06/18 17:43:18;;;;;;;5.45;3.70;;;30.10;63.60;;;;;;10982178;32;20336;-73
2023/06/18 17:49:24;;;;;;;6.05;2.67;;;30.00;64.70;;;;;;10983394;32;20112;-74
2023/06/18 17:55:27;;;;;;;4.53;2.70;;;29.90;66.10;;;;;;10969469;32;20043;-73
2023/06/18 18:01:29;;;;;;;4.07;2.65;;;30.00;66.90;;;;;;10978645;32;20035;-73
2023/06/18 18:07:31;;;;;;;10.38;3.42;;;30.10;66.70;;;;;;10981568;32;20408;-74
2023/06/18 18:13:33;;;;;;;6.95;3.58;;;29.90;67.00;;;;;;10982373;32;20432;-73
2023/06/18 18:19:36;;;;;;;4.45;2.83;;;29.70;67.70;;;;;;10981935;32;20027;-73
2023/06/18 18:25:38;;;;;;;3.45;2.35;;;29.50;68.00;;;;;;10982297;32;20026;-73
2023/06/18 18:31:40;;;;;;;5.07;2.65;;;29.40;68.40;;;;;;10981985;32;20053;-73
2023/06/18 18:37:42;;;;;;;4.72;2.70;;;29.30;68.60;;;;;;10977185;32;20417;-74
2023/06/18 18:43:44;;;;;;;4.97;2.35;;;29.20;69.30;;;;;;10967122;32;20030;-73
2023/06/18 18:49:46;;;;;;;3.67;2.42;;;29.20;69.50;;;;;;10979692;32;20041;-73
2023/06/18 18:55:49;;;;;;;3.25;2.30;;;29.00;69.80;;;;;;10978951;32;20026;-73
2023/06/18 19:01:51;;;;;;;3.78;2.25;;;28.90;70.10;;;;;;10976672;32;20018;-74
2023/06/18 19:07:53;;;;;;;2.83;1.95;;;28.90;70.70;;;;;;10964508;32;20064;-73
2023/06/18 19:13:56;;;;;;;4.22;2.53;;;28.80;71.00;;;;;;10966776;32;20026;-73
2023/06/18 19:20:18;;;;;;;6.75;2.65;;;28.80;71.40;;;;;;10980542;32;20019;-73
2023/06/18 19:26:20;;;;;;;4.03;3.10;;;28.60;72.10;;;;;;10953422;32;20046;-73
2023/06/18 19:32:23;;;;;;;3.60;2.08;;;28.60;72.80;;;;;;10938543;32;20041;-73
2023/06/18 19:38:25;;;;;;;3.08;1.70;;;28.50;73.90;;;;;;10941111;32;20037;-73
2023/06/18 19:44:29;;;;;;;2.87;1.73;;;28.50;74.60;;;;;;10940932;32;20035;-73
2023/06/18 19:50:32;;;;;;;2.42;1.52;;;28.50;74.30;;;;;;10941320;32;20015;-73
2023/06/18 19:56:34;;;;;;;3.55;2.33;;;28.40;74.50;;;;;;10941154;32;20027;-73
2023/06/18 20:02:36;;;;;;;2.75;2.17;;;28.30;74.90;;;;;;10940812;32;20045;-74
2023/06/18 20:08:38;;;;;;;4.93;2.28;;;28.30;75.00;;;;;;10940458;32;20026;-73
2023/06/18 20:14:41;;;;;;;5.78;2.67;;;28.30;75.60;;;;;;10940258;32;20393;-73
2023/06/18 20:20:43;;;;;;;3.45;1.95;;;28.30;75.40;;;;;;10941399;32;20397;-74
2023/06/18 20:26:46;;;;;;;4.25;2.58;;;28.20;75.20;;;;;;10941180;32;20348;-73
2023/06/18 20:32:48;;;;;;;6.37;2.42;;;28.20;75.30;;;;;;10938896;32;20035;-73
2023/06/18 20:38:51;;;;;;;2.97;2.00;;;28.10;75.60;;;;;;10940745;32;20393;-73
2023/06/18 20:44:53;;;;;;;4.05;1.95;;;28.10;76.30;;;;;;10945606;32;20039;-74
2023/06/18 20:51:03;;;;;;;5.43;2.10;;;27.90;76.50;;;;;;10944453;32;20022;-74
2023/06/18 20:57:07;;;;;;;4.87;2.30;;;27.90;76.40;;;;;;10945001;32;20101;-73
2023/06/18 21:03:09;;;;;;;5.35;2.37;;;27.90;77.00;;;;;;10944709;32;20439;-73
2023/06/18 21:09:11;;;;;;;4.65;2.75;;;27.80;77.30;;;;;;10944631;32;20027;-74
2023/06/18 21:15:14;;;;;;;4.87;2.92;;;27.80;77.60;;;;;;10942938;32;20042;-73
2023/06/18 21:21:16;;;;;;;6.95;4.80;;;27.60;78.00;;;;;;10943467;32;20049;-74
2023/06/18 21:27:19;;;;;;;11.77;9.73;;;27.50;78.20;;;;;;10946430;32;20049;-73
2023/06/18 21:33:21;;;;;;;16.10;13.80;;;27.40;78.50;;;;;;10947096;32;20027;-73
2023/06/18 21:39:23;;;;;;;12.23;8.23;;;27.50;78.00;;;;;;10941909;32;20045;-74
2023/06/18 21:45:25;;;;;;;14.10;10.57;;;27.50;78.00;;;;;;10945891;32;20444;-73
2023/06/18 21:51:27;;;;;;;8.93;6.32;;;27.30;78.20;;;;;;10944667;32;20058;-73
2023/06/18 21:57:30;;;;;;;10.07;5.22;;;27.30;78.40;;;;;;10945874;32;20045;-72
2023/06/18 22:03:32;;;;;;;4.62;3.72;;;27.30;78.30;;;;;;10945655;32;20061;-73
2023/06/18 22:09:34;;;;;;;5.75;3.60;;;27.30;78.10;;;;;;10944238;32;20404;-73
2023/06/18 22:15:36;;;;;;;8.30;3.62;;;27.30;78.00;;;;;;10945155;32;20015;-73
2023/06/18 22:21:39;;;;;;;7.87;3.95;;;27.20;78.20;;;;;;10943226;32;20035;-73
2023/06/18 22:27:40;;;;;;;5.35;3.67;;;27.10;78.20;;;;;;10944512;32;20431;-73
2023/06/18 22:33:42;;;;;;;7.32;3.78;;;27.10;78.00;;;;;;10942845;32;20026;-74
2023/06/18 22:39:44;;;;;;;5.62;3.10;;;27.00;78.30;;;;;;10942373;32;20045;-73
2023/06/18 22:45:47;;;;;;;4.87;3.03;;;27.00;78.40;;;;;;10939985;32;20030;-73
2023/06/18 22:51:56;;;;;;;5.43;2.65;;;27.10;78.20;;;;;;10941936;32;20018;-73
2023/06/18 22:57:58;;;;;;;2.97;1.70;;;27.00;78.60;;;;;;10943828;32;20014;-73
2023/06/18 23:04:00;;;;;;;3.97;2.50;;;27.00;78.60;;;;;;10943324;32;20019;-73
2023/06/18 23:10:03;;;;;;;4.07;2.67;;;27.00;78.70;;;;;;10943250;32;20039;-73
2023/06/18 23:16:05;;;;;;;5.72;3.28;;;26.90;78.90;;;;;;10943104;32;20007;-73
2023/06/18 23:22:09;;;;;;;5.50;3.15;;;26.90;79.10;;;;;;10942648;32;20379;-74
2023/06/18 23:28:11;;;;;;;4.80;2.85;;;26.90;78.90;;;;;;10963399;27;20451;-73
2023/06/18 23:34:14;;;;;;;4.85;2.83;;;26.90;78.80;;;;;;10979711;32;20010;-73
2023/06/18 23:40:21;;;;;;;4.55;3.17;;;26.80;79.10;;;;;;10976019;32;20306;-73
2023/06/18 23:46:23;;;;;;;5.37;3.13;;;26.70;78.90;;;;;;10965759;32;20026;-73
2023/06/18 23:52:25;;;;;;;4.68;3.10;;;26.50;79.20;;;;;;10979330;32;20015;-73
2023/06/18 23:58:27;;;;;;;3.15;2.58;;;26.40;79.40;;;;;;10979159;32;20064;-74
